Time;durP1;ratioP1;P1;durP2;ratioP2;P2;SDS_P1;SDS_P2;PMS_P1;PMS_P2;Temp;Humidity;BMP_temperature;BMP_pressure;BME280_temperature;BME280_humidity;BME280_pressure;Samples;Min_cycle;Max_cycle;Signal;HPM_P1;HPM_P2
2023/04/09 00:02:13;;;;;;;33.47;16.33;;;2.00;99.90;;;;;;5163849;27;20199;-65
2023/04/09 00:04:40;;;;;;;33.40;17.90;;;2.20;99.90;;;;;;5160560;27;20566;-66
2023/04/09 00:07:07;;;;;;;38.27;20.60;;;2.20;99.90;;;;;;5164039;27;20199;-66
2023/04/09 00:09:33;;;;;;;46.60;22.33;;;2.40;99.90;;;;;;5159538;27;20225;-66
2023/04/09 00:12:02;;;;;;;51.20;24.37;;;2.50;99.90;;;;;;5159463;27;20207;-66
2023/04/09 00:14:29;;;;;;;43.73;22.73;;;2.60;99.90;;;;;;5164657;27;20202;-66
2023/04/09 00:16:56;;;;;;;52.53;22.97;;;2.60;99.90;;;;;;5155997;27;20235;-66
2023/04/09 00:19:22;;;;;;;48.67;26.03;;;2.50;99.90;;;;;;5162378;27;20195;-66
2023/04/09 00:21:49;;;;;;;50.13;21.57;;;2.60;99.90;;;;;;5161048;27;20203;-66
2023/04/09 00:24:16;;;;;;;49.60;23.70;;;2.50;99.90;;;;;;5159944;27;20272;-66
2023/04/09 00:26:43;;;;;;;46.13;22.87;;;2.50;99.90;;;;;;5166501;27;20195;-66
2023/04/09 00:29:11;;;;;;;54.37;24.07;;;2.50;99.90;;;;;;5159188;27;20241;-66
2023/04/09 00:31:38;;;;;;;56.90;27.00;;;2.40;99.90;;;;;;5159023;27;20684;-66
2023/04/09 00:34:04;;;;;;;46.80;23.50;;;2.50;99.90;;;;;;5161972;27;20203;-66
2023/04/09 00:36:31;;;;;;;52.67;28.17;;;2.50;99.90;;;;;;5164188;27;20676;-66
2023/04/09 00:38:58;;;;;;;57.47;29.57;;;2.40;99.90;;;;;;5163001;27;20195;-66
2023/04/09 00:41:25;;;;;;;52.77;26.67;;;2.40;99.90;;;;;;5165840;27;20199;-66
2023/04/09 00:43:52;;;;;;;49.50;26.43;;;2.30;99.90;;;;;;5161172;27;20557;-66
2023/04/09 00:46:21;;;;;;;51.93;27.03;;;2.20;99.90;;;;;;5160586;27;20195;-68
2023/04/09 00:48:48;;;;;;;48.53;25.70;;;2.20;99.90;;;;;;5160234;27;20205;-66
2023/04/09 00:51:15;;;;;;;56.90;27.87;;;2.00;99.90;;;;;;5158206;27;20865;-66
2023/04/09 00:53:42;;;;;;;53.63;28.17;;;2.00;99.90;;;;;;5160088;27;20202;-66
2023/04/09 00:56:10;;;;;;;48.03;26.03;;;1.80;99.90;;;;;;5163050;27;20203;-65
2023/04/09 00:58:37;;;;;;;52.10;26.97;;;1.80;99.90;;;;;;5168835;27;20195;-65
2023/04/09 01:01:04;;;;;;;50.47;27.33;;;1.80;99.90;;;;;;5155950;27;20645;-66
2023/04/09 01:03:32;;;;;;;56.03;25.87;;;1.70;99.90;;;;;;5154318;27;20685;-66
2023/04/09 01:06:05;;;;;;;52.37;28.70;;;1.70;99.90;;;;;;5158741;27;20199;-66
2023/04/09 01:08:41;;;;;;;45.57;24.93;;;1.70;99.90;;;;;;5154103;27;20195;-66
2023/04/09 01:11:19;;;;;;;46.27;25.37;;;1.70;99.90;;;;;;5156686;27;20623;-65
2023/04/09 01:13:55;;;;;;;44.47;24.90;;;1.50;99.90;;;;;;5166585;27;20199;-66
2023/04/09 01:16:23;;;;;;;43.77;24.47;;;1.50;99.90;;;;;;5168983;27;20692;-66
2023/04/09 01:18:59;;;;;;;45.40;24.83;;;1.40;99.90;;;;;;5163690;27;20208;-66
2023/04/09 01:21:30;;;;;;;51.10;25.37;;;1.40;99.90;;;;;;5162906;27;20229;-66
2023/04/09 01:24:19;;;;;;;47.87;24.73;;;1.50;99.90;;;;;;5161616;27;20307;-66
2023/04/09 01:26:57;;;;;;;43.57;25.10;;;1.50;99.90;;;;;;5160489;27;20203;-66
2023/04/09 01:29:26;;;;;;;42.47;25.13;;;1.50;99.90;;;;;;5168364;27;20243;-66
2023/04/09 01:31:55;;;;;;;43.50;25.93;;;1.40;99.90;;;;;;5162373;27;20218;-66
2023/04/09 01:34:22;;;;;;;44.97;22.43;;;1.50;99.90;;;;;;5166755;27;20206;-66
2023/04/09 01:36:54;;;;;;;41.13;22.80;;;1.40;99.90;;;;;;5169691;27;20206;-66
2023/04/09 01:39:21;;;;;;;40.67;22.20;;;1.30;99.90;;;;;;5165393;27;20202;-66
2023/04/09 01:41:49;;;;;;;41.87;22.33;;;1.30;99.90;;;;;;5163612;27;20202;-66
2023/04/09 01:44:17;;;;;;;58.17;27.00;;;1.50;99.90;;;;;;5166688;27;20226;-66
2023/04/09 01:46:47;;;;;;;41.37;22.40;;;1.60;99.90;;;;;;5164520;27;20206;-66
2023/04/09 01:49:15;;;;;;;46.67;22.03;;;1.60;99.90;;;;;;5161031;27;20207;-66
2023/04/09 01:51:43;;;;;;;51.73;25.73;;;1.50;99.90;;;;;;5158247;27;20196;-66
2023/04/09 01:54:09;;;;;;;39.20;22.10;;;1.50;99.90;;;;;;5165674;27;20201;-66
2023/04/09 01:56:43;;;;;;;49.53;22.00;;;1.50;99.90;;;;;;5164626;27;20203;-66
2023/04/09 01:59:10;;;;;;;40.23;21.80;;;1.40;99.90;;;;;;5161841;27;20198;-66
2023/04/09 02:01:44;;;;;;;55.03;23.33;;;1.30;99.90;;;;;;5160244;27;20200;-66
2023/04/09 02:04:20;;;;;;;43.30;22.07;;;1.30;99.90;;;;;;5159254;27;20222;-66
2023/04/09 02:06:53;;;;;;;58.43;26.03;;;1.10;99.90;;;;;;5160802;27;20206;-66
2023/04/09 02:09:23;;;;;;;50.03;24.33;;;1.20;99.90;;;;;;5163283;27;20640;-66
2023/04/09 02:11:51;;;;;;;46.63;22.07;;;1.30;99.90;;;;;;5162036;27;20219;-66
2023/04/09 02:14:20;;;;;;;50.50;23.43;;;1.20;99.90;;;;;;5168743;27;20672;-66
2023/04/09 02:16:47;;;;;;;59.67;23.60;;;1.30;99.90;;;;;;5165062;27;20210;-66
2023/04/09 02:19:15;;;;;;;45.50;21.07;;;1.40;99.90;;;;;;5160498;27;20652;-66
2023/04/09 02:21:43;;;;;;;45.83;20.47;;;1.20;99.90;;;;;;5168930;27;20195;-71
2023/04/09 02:24:09;;;;;;;43.57;21.33;;;1.10;99.90;;;;;;5158638;27;20219;-72
2023/04/09 02:26:36;;;;;;;43.33;23.23;;;1.20;99.90;;;;;;5163696;27;20206;-72
2023/04/09 02:29:03;;;;;;;47.43;22.20;;;1.10;99.90;;;;;;5157666;27;20568;-72
2023/04/09 02:31:30;;;;;;;51.83;23.57;;;1.30;99.90;;;;;;5159272;27;20199;-72
2023/04/09 02:33:56;;;;;;;44.27;22.60;;;0.90;99.90;;;;;;5166687;27;20195;-71
2023/04/09 02:36:25;;;;;;;41.37;20.93;;;1.00;99.90;;;;;;5166214;27;20199;-72
2023/04/09 02:38:52;;;;;;;41.93;22.27;;;1.00;99.90;;;;;;5165865;27;20204;-71
2023/04/09 02:41:18;;;;;;;52.17;20.57;;;1.00;99.90;;;;;;5161805;27;20218;-72
2023/04/09 02:43:45;;;;;;;41.23;19.60;;;0.80;99.90;;;;;;5160829;27;20212;-72
2023/04/09 02:46:12;;;;;;;43.73;20.63;;;0.90;99.90;;;;;;5161032;27;20202;-72
2023/04/09 02:48:39;;;;;;;46.97;20.67;;;1.10;99.90;;;;;;5166497;27;20205;-72
2023/04/09 02:51:07;;;;;;;51.50;23.17;;;1.10;99.90;;;;;;5161143;27;20206;-71
2023/04/09 02:53:36;;;;;;;54.50;21.47;;;0.90;99.90;;;;;;5161636;27;20192;-71
2023/04/09 02:56:03;;;;;;;39.07;20.90;;;0.80;99.90;;;;;;5162460;27;20195;-72
2023/04/09 02:58:30;;;;;;;34.13;19.53;;;0.90;99.90;;;;;;5173194;27;20198;-72
2023/04/09 03:00:57;;;;;;;30.40;18.93;;;1.00;99.90;;;;;;5174014;27;20218;-72
2023/04/09 03:03:24;;;;;;;33.67;20.63;;;0.90;99.90;;;;;;5163910;27;20212;-72
2023/04/09 03:05:50;;;;;;;34.73;19.33;;;0.90;99.90;;;;;;5166434;27;20199;-72
2023/04/09 03:08:17;;;;;;;36.57;19.47;;;0.90;99.90;;;;;;5164198;27;20203;-72
2023/04/09 03:10:45;;;;;;;36.60;20.23;;;0.90;99.90;;;;;;5167363;27;20198;-71
2023/04/09 03:13:12;;;;;;;31.93;20.13;;;0.80;99.90;;;;;;5174002;27;20203;-72
2023/04/09 03:15:39;;;;;;;44.53;21.90;;;0.90;99.90;;;;;;5158354;27;20289;-71
2023/04/09 03:18:06;;;;;;;35.47;18.87;;;0.90;99.90;;;;;;5165444;27;20207;-72
2023/04/09 03:20:33;;;;;;;36.27;18.80;;;0.70;99.90;;;;;;5173207;27;20203;-72
2023/04/09 03:22:59;;;;;;;45.53;21.00;;;0.50;99.90;;;;;;5172669;27;20203;-70
2023/04/09 03:25:26;;;;;;;43.13;18.57;;;0.70;99.90;;;;;;5160362;27;20218;-72
2023/04/09 03:27:54;;;;;;;34.63;19.03;;;0.30;99.90;;;;;;5168342;27;20196;-73
2023/04/09 03:30:21;;;;;;;38.23;18.10;;;0.40;99.90;;;;;;5171313;27;20194;-70
2023/04/09 03:32:48;;;;;;;32.77;17.63;;;0.60;99.90;;;;;;5173328;27;20202;-71
2023/04/09 03:35:15;;;;;;;33.33;18.77;;;0.60;99.90;;;;;;5164850;27;20563;-70
2023/04/09 03:37:42;;;;;;;39.43;19.87;;;0.30;99.90;;;;;;5166280;27;20571;-70
2023/04/09 03:40:09;;;;;;;32.20;19.53;;;0.40;99.90;;;;;;5169813;27;20206;-71
2023/04/09 03:42:36;;;;;;;32.80;20.23;;;0.50;99.90;;;;;;5165999;27;20200;-72
2023/04/09 03:45:05;;;;;;;34.30;20.00;;;0.40;99.90;;;;;;5169631;27;20225;-71
2023/04/09 03:47:33;;;;;;;28.27;17.40;;;0.30;99.90;;;;;;5166102;27;20195;-71
2023/04/09 03:50:00;;;;;;;35.17;19.27;;;0.20;99.90;;;;;;5170509;27;20652;-71
2023/04/09 03:52:27;;;;;;;37.67;22.23;;;0.00;99.90;;;;;;5166298;27;20199;-71
2023/04/09 03:54:53;;;;;;;36.40;23.00;;;0.00;99.90;;;;;;5162432;27;20198;-71
2023/04/09 03:57:20;;;;;;;37.87;20.67;;;0.10;99.90;;;;;;5165859;27;20199;-70
2023/04/09 03:59:47;;;;;;;39.53;20.73;;;0.00;99.90;;;;;;5173986;27;20213;-70
2023/04/09 04:02:15;;;;;;;34.93;20.37;;;-0.10;99.90;;;;;;5166535;27;20202;-71
2023/04/09 04:04:42;;;;;;;41.70;23.20;;;-0.10;99.90;;;;;;5161390;27;20212;-71
2023/04/09 04:07:08;;;;;;;49.00;23.73;;;0.00;99.90;;;;;;5170914;27;20203;-71
2023/04/09 04:09:36;;;;;;;50.53;25.33;;;0.00;99.90;;;;;;5165879;27;20199;-70
2023/04/09 04:12:03;;;;;;;54.90;21.37;;;-0.10;99.90;;;;;;5159506;27;20223;-71
2023/04/09 04:14:30;;;;;;;40.87;22.23;;;-0.10;99.90;;;;;;5161435;27;20202;-71
2023/04/09 04:16:57;;;;;;;59.77;23.70;;;0.00;99.90;;;;;;5158220;27;20652;-71
2023/04/09 04:19:25;;;;;;;58.37;22.77;;;0.00;99.90;;;;;;5165102;27;20565;-70
2023/04/09 04:21:52;;;;;;;44.67;22.93;;;-0.20;99.90;;;;;;5163705;27;20194;-70
2023/04/09 04:24:18;;;;;;;51.97;23.90;;;-0.20;99.90;;;;;;5162598;27;20224;-71
2023/04/09 04:26:45;;;;;;;39.70;23.87;;;-0.10;99.90;;;;;;5160753;27;20206;-64
2023/04/09 04:29:12;;;;;;;35.73;18.57;;;0.00;99.90;;;;;;5164730;27;20282;-64
2023/04/09 04:31:39;;;;;;;39.93;22.00;;;0.10;99.90;;;;;;5164967;27;20203;-64
2023/04/09 04:34:05;;;;;;;35.70;22.30;;;-0.10;99.90;;;;;;5163034;27;20203;-63
2023/04/09 04:36:34;;;;;;;38.63;21.93;;;-0.10;99.90;;;;;;5167703;27;20567;-64
2023/04/09 04:39:01;;;;;;;40.30;20.27;;;-0.10;99.90;;;;;;5162125;27;20587;-64
2023/04/09 04:41:28;;;;;;;37.43;22.20;;;-0.20;99.90;;;;;;5165203;27;20566;-64
2023/04/09 04:43:56;;;;;;;35.23;19.80;;;-0.10;99.90;;;;;;5163775;27;20700;-63
2023/04/09 04:46:22;;;;;;;33.37;20.30;;;-0.10;99.90;;;;;;5168487;27;20207;-63
2023/04/09 04:48:49;;;;;;;34.60;22.33;;;-0.10;99.90;;;;;;5169869;27;20202;-63
2023/04/09 04:51:16;;;;;;;39.20;23.50;;;-0.20;99.90;;;;;;5166656;27;20191;-64
2023/04/09 04:53:45;;;;;;;47.60;25.07;;;-0.20;99.90;;;;;;5166140;27;20222;-63
2023/04/09 04:56:28;;;;;;;37.90;23.77;;;-0.20;99.90;;;;;;5155980;27;20566;-65
2023/04/09 04:58:54;;;;;;;36.70;22.60;;;-0.20;99.90;;;;;;5163247;27;20203;-65
2023/04/09 05:01:21;;;;;;;35.00;22.30;;;-0.30;99.90;;;;;;5160972;27;20209;-64
2023/04/09 05:03:48;;;;;;;38.90;23.20;;;-0.30;99.90;;;;;;5166904;27;20298;-65
2023/04/09 05:06:15;;;;;;;41.67;22.93;;;-0.30;99.90;;;;;;5163876;27;20285;-64
2023/04/09 05:08:41;;;;;;;37.97;22.73;;;-0.40;99.90;;;;;;5163783;27;20202;-64
2023/04/09 05:11:14;;;;;;;43.37;23.80;;;-0.50;99.90;;;;;;5166870;27;20253;-64
2023/04/09 05:13:40;;;;;;;43.73;23.23;;;-0.40;99.90;;;;;;5161461;27;20649;-65
2023/04/09 05:16:08;;;;;;;40.70;22.57;;;-0.60;99.90;;;;;;5162198;27;20207;-65
2023/04/09 05:18:34;;;;;;;44.37;23.63;;;-0.40;99.90;;;;;;5162142;27;20218;-65
2023/04/09 05:21:01;;;;;;;40.83;22.00;;;-0.40;99.90;;;;;;5159063;27;20562;-65
2023/04/09 05:23:28;;;;;;;48.70;23.53;;;-0.80;99.90;;;;;;5167917;27;20199;-65
2023/04/09 05:25:55;;;;;;;64.07;23.33;;;-0.50;99.90;;;;;;5170639;27;20676;-64
2023/04/09 05:28:23;;;;;;;51.60;22.40;;;-0.50;99.90;;;;;;5171358;27;21065;-65
2023/04/09 05:30:50;;;;;;;44.07;20.77;;;-0.40;99.90;;;;;;5163679;27;20207;-65
2023/04/09 05:33:17;;;;;;;43.50;19.60;;;-0.40;99.90;;;;;;5166699;27;20199;-65
2023/04/09 05:35:43;;;;;;;53.53;19.33;;;-0.50;99.90;;;;;;5173548;27;20199;-65
2023/04/09 05:38:12;;;;;;;37.47;20.50;;;-0.50;99.90;;;;;;5171903;27;20200;-65
2023/04/09 05:40:39;;;;;;;42.33;20.40;;;-0.50;99.90;;;;;;5170567;27;20199;-65
2023/04/09 05:43:06;;;;;;;37.03;18.30;;;-0.40;99.90;;;;;;5165335;27;20196;-64
2023/04/09 05:45:34;;;;;;;37.77;18.90;;;-0.40;99.90;;;;;;5159956;27;20620;-65
2023/04/09 05:48:01;;;;;;;35.17;18.87;;;-0.30;99.90;;;;;;5164771;27;20286;-65
2023/04/09 05:50:28;;;;;;;46.77;19.80;;;-0.20;99.90;;;;;;5165978;27;20206;-65
2023/04/09 05:52:55;;;;;;;37.53;21.73;;;-0.20;99.90;;;;;;5162284;27;20200;-65
2023/04/09 05:55:22;;;;;;;56.63;20.17;;;-0.20;99.90;;;;;;5167277;27;20370;-64
2023/04/09 05:57:51;;;;;;;36.20;19.53;;;-0.20;99.90;;;;;;5162448;27;20587;-64
2023/04/09 06:00:18;;;;;;;36.47;18.17;;;-0.30;99.90;;;;;;5168294;27;20191;-65
2023/04/09 06:02:46;;;;;;;43.90;21.13;;;-0.10;99.90;;;;;;5161356;27;20204;-64
2023/04/09 06:05:13;;;;;;;39.63;18.90;;;-0.10;99.90;;;;;;5163711;27;20214;-64
2023/04/09 06:07:40;;;;;;;31.97;19.03;;;0.10;99.90;;;;;;5160650;27;20192;-64
2023/04/09 06:10:08;;;;;;;35.13;18.90;;;0.10;99.90;;;;;;5162434;27;20192;-64
2023/04/09 06:12:35;;;;;;;39.83;18.73;;;0.20;99.90;;;;;;5163555;27;20214;-64
2023/04/09 06:15:02;;;;;;;34.93;19.37;;;0.30;99.90;;;;;;5162148;27;20563;-64
2023/04/09 06:17:29;;;;;;;40.20;19.30;;;0.50;99.90;;;;;;5161966;27;20195;-64
2023/04/09 06:19:57;;;;;;;38.23;18.47;;;0.30;99.90;;;;;;5160265;27;20244;-64
2023/04/09 06:22:24;;;;;;;37.33;19.73;;;0.20;99.90;;;;;;5166875;27;20196;-65
2023/04/09 06:24:51;;;;;;;33.63;18.57;;;0.40;99.90;;;;;;5165230;27;20212;-66
2023/04/09 06:27:18;;;;;;;31.47;17.97;;;0.40;99.90;;;;;;5168815;27;20645;-66
2023/04/09 06:29:44;;;;;;;37.90;20.50;;;0.60;99.90;;;;;;5164747;27;20195;-65
2023/04/09 06:32:12;;;;;;;31.83;19.73;;;0.70;99.90;;;;;;5165723;27;20547;-66
2023/04/09 06:34:39;;;;;;;52.23;29.50;;;0.60;99.90;;;;;;5171463;27;20191;-66
2023/04/09 06:37:07;;;;;;;39.53;18.90;;;0.60;99.90;;;;;;5168299;27;20194;-65
2023/04/09 06:39:34;;;;;;;34.33;18.17;;;0.40;99.90;;;;;;5168782;27;20230;-65
2023/04/09 06:42:02;;;;;;;35.50;18.77;;;0.70;99.90;;;;;;5164461;27;20198;-66
2023/04/09 06:44:30;;;;;;;42.70;19.53;;;0.70;99.90;;;;;;5167931;27;20247;-66
2023/04/09 06:46:57;;;;;;;32.20;18.87;;;0.60;99.90;;;;;;5166088;27;20203;-66
2023/04/09 06:49:24;;;;;;;35.00;21.30;;;0.80;99.90;;;;;;5174470;27;20553;-66
2023/04/09 06:51:53;;;;;;;40.10;23.77;;;1.00;99.90;;;;;;5171314;27;20294;-65
2023/04/09 06:54:21;;;;;;;34.17;19.63;;;1.10;99.90;;;;;;5170930;27;20199;-66
2023/04/09 06:56:48;;;;;;;36.70;21.27;;;1.20;99.90;;;;;;5167930;27;20562;-65
2023/04/09 06:59:15;;;;;;;35.50;20.20;;;1.10;99.90;;;;;;5168187;27;20222;-66
2023/04/09 07:01:42;;;;;;;34.23;19.87;;;1.20;99.90;;;;;;5158193;27;20202;-66
2023/04/09 07:04:09;;;;;;;31.87;19.70;;;1.40;99.90;;;;;;5164879;27;20234;-65
2023/04/09 07:06:36;;;;;;;31.67;19.27;;;1.40;99.90;;;;;;5168763;27;20199;-66
2023/04/09 07:09:03;;;;;;;33.00;20.33;;;1.50;99.90;;;;;;5166772;27;20203;-66
2023/04/09 07:11:31;;;;;;;34.80;19.47;;;1.40;99.90;;;;;;5160537;27;20234;-66
2023/04/09 07:13:58;;;;;;;38.53;20.23;;;1.50;99.90;;;;;;5169997;27;20200;-66
2023/04/09 07:16:25;;;;;;;35.50;20.37;;;1.50;99.90;;;;;;5168423;27;20203;-66
2023/04/09 07:18:52;;;;;;;33.97;20.53;;;1.90;99.90;;;;;;5167488;27;20199;-66
2023/04/09 07:21:19;;;;;;;35.43;21.10;;;1.90;99.90;;;;;;5168481;27;20202;-66
2023/04/09 07:23:46;;;;;;;37.87;22.63;;;1.80;99.90;;;;;;5163362;27;20248;-66
2023/04/09 07:26:13;;;;;;;39.97;22.67;;;1.90;99.90;;;;;;5172124;27;20219;-66
2023/04/09 07:28:41;;;;;;;38.23;21.80;;;2.00;99.90;;;;;;5167134;27;20628;-66
2023/04/09 07:31:08;;;;;;;40.33;22.67;;;2.30;99.90;;;;;;5165215;27;20218;-66
2023/04/09 07:33:35;;;;;;;39.10;23.03;;;2.40;99.90;;;;;;5164343;27;20198;-66
2023/04/09 07:36:02;;;;;;;36.63;22.17;;;2.70;99.90;;;;;;5167320;27;20195;-66
2023/04/09 07:38:29;;;;;;;41.83;23.73;;;2.80;99.90;;;;;;5167789;27;20204;-65
2023/04/09 07:40:57;;;;;;;40.63;22.73;;;3.00;99.90;;;;;;5160021;27;20255;-65
2023/04/09 07:43:24;;;;;;;35.73;22.17;;;3.30;99.90;;;;;;5159344;27;20671;-65
2023/04/09 07:45:52;;;;;;;36.43;21.67;;;3.40;99.90;;;;;;5162373;27;20222;-65
2023/04/09 07:48:19;;;;;;;41.17;23.53;;;3.60;99.90;;;;;;5164499;27;20635;-65
2023/04/09 07:50:47;;;;;;;45.10;24.20;;;3.90;99.90;;;;;;5165688;27;20351;-65
2023/04/09 07:53:13;;;;;;;40.33;23.43;;;3.80;99.90;;;;;;5162903;27;20298;-65
2023/04/09 07:55:41;;;;;;;42.33;22.43;;;4.00;99.90;;;;;;5170929;27;20653;-65
2023/04/09 07:58:07;;;;;;;42.40;23.10;;;4.10;99.90;;;;;;5169669;27;20199;-65
2023/04/09 08:00:34;;;;;;;43.20;23.93;;;4.30;99.90;;;;;;5164925;27;20191;-65
2023/04/09 08:03:03;;;;;;;46.77;25.57;;;4.40;99.90;;;;;;5167736;27;20199;-65
2023/04/09 08:05:30;;;;;;;45.47;23.20;;;4.60;99.90;;;;;;5169875;27;20276;-65
2023/04/09 08:07:57;;;;;;;41.23;22.87;;;4.60;99.90;;;;;;5168486;27;20272;-65
2023/04/09 08:10:24;;;;;;;44.77;23.30;;;4.60;99.90;;;;;;5164897;27;20224;-65
2023/04/09 08:12:51;;;;;;;47.73;25.83;;;4.80;99.90;;;;;;5169130;27;20214;-66
2023/04/09 08:15:18;;;;;;;44.80;23.17;;;4.90;99.90;;;;;;5166105;27;20195;-65
2023/04/09 08:17:45;;;;;;;48.27;24.57;;;4.90;99.90;;;;;;5164335;27;20195;-65
2023/04/09 08:20:15;;;;;;;47.37;24.83;;;5.20;99.90;;;;;;5156787;27;20200;-66
2023/04/09 08:22:42;;;;;;;46.50;24.50;;;5.40;99.90;;;;;;5168131;27;20202;-66
2023/04/09 08:25:09;;;;;;;48.10;24.47;;;5.20;99.90;;;;;;5169049;27;20699;-65
2023/04/09 08:27:36;;;;;;;43.27;24.30;;;5.40;99.90;;;;;;5163208;27;20195;-66
2023/04/09 08:30:03;;;;;;;48.57;25.27;;;5.50;99.90;;;;;;5164928;27;20202;-66
2023/04/09 08:32:30;;;;;;;45.53;24.40;;;5.80;99.90;;;;;;5170859;27;20220;-67
2023/04/09 08:34:57;;;;;;;42.03;22.30;;;6.00;99.90;;;;;;5160753;27;20692;-66
2023/04/09 08:37:25;;;;;;;43.57;22.70;;;6.30;99.90;;;;;;5163446;27;20200;-66
2023/04/09 08:39:52;;;;;;;44.47;23.80;;;6.20;99.90;;;;;;5160213;27;20208;-66
2023/04/09 08:42:21;;;;;;;49.37;22.47;;;6.30;99.90;;;;;;5158284;27;20288;-66
2023/04/09 08:44:48;;;;;;;45.80;23.60;;;6.20;99.90;;;;;;5160456;27;20203;-67
2023/04/09 08:47:15;;;;;;;41.60;22.37;;;6.40;99.90;;;;;;5160228;27;20200;-66
2023/04/09 08:49:42;;;;;;;42.07;22.10;;;6.60;99.90;;;;;;5159794;27;20195;-67
2023/04/09 08:52:09;;;;;;;41.17;20.50;;;6.80;99.90;;;;;;5162115;27;20540;-66
2023/04/09 08:54:37;;;;;;;44.83;21.57;;;6.90;99.90;;;;;;5158493;27;20199;-66
2023/04/09 08:57:05;;;;;;;39.97;20.77;;;7.00;99.90;;;;;;5157675;27;20555;-66
2023/04/09 08:59:35;;;;;;;38.70;20.37;;;7.20;99.90;;;;;;5160082;27;20227;-66
2023/04/09 09:02:09;;;;;;;40.13;20.27;;;7.40;99.90;;;;;;5159836;27;20664;-66
2023/04/09 09:04:46;;;;;;;36.57;20.30;;;7.60;99.90;;;;;;5158373;27;20624;-66
2023/04/09 09:07:13;;;;;;;38.97;19.37;;;7.60;99.90;;;;;;5163055;27;20597;-66
2023/04/09 09:10:03;;;;;;;41.83;22.40;;;7.60;99.90;;;;;;5163964;27;20191;-66
2023/04/09 09:12:38;;;;;;;39.93;20.93;;;7.80;99.90;;;;;;5152840;27;20374;-66
2023/04/09 09:15:11;;;;;;;38.90;21.57;;;7.90;99.90;;;;;;5155136;27;20231;-66
2023/04/09 09:17:54;;;;;;;36.03;19.73;;;7.90;99.90;;;;;;5155801;27;20202;-66
2023/04/09 09:20:22;;;;;;;38.37;20.03;;;8.00;99.90;;;;;;5162168;27;20312;-66
2023/04/09 09:22:50;;;;;;;38.90;22.67;;;8.20;99.90;;;;;;5154469;27;20672;-66
2023/04/09 09:25:22;;;;;;;36.07;21.00;;;8.20;99.90;;;;;;5159033;27;20220;-66
2023/04/09 09:27:49;;;;;;;43.97;22.67;;;8.10;99.90;;;;;;5164437;27;20463;-65
2023/04/09 09:30:22;;;;;;;46.80;25.13;;;8.20;99.90;;;;;;5166125;27;20645;-66
2023/04/09 09:32:52;;;;;;;50.83;26.13;;;8.20;99.90;;;;;;5170536;27;20666;-66
2023/04/09 09:35:19;;;;;;;55.63;27.53;;;8.10;99.90;;;;;;5165701;27;20518;-66
2023/04/09 09:37:47;;;;;;;52.33;27.00;;;8.20;99.90;;;;;;5174696;27;20663;-66
2023/04/09 09:40:28;;;;;;;54.27;26.50;;;8.20;99.90;;;;;;5166716;27;20286;-66
2023/04/09 09:42:56;;;;;;;57.90;27.57;;;8.20;99.90;;;;;;5170610;27;20617;-66
2023/04/09 09:45:24;;;;;;;52.73;25.17;;;8.20;99.90;;;;;;5165935;27;20219;-65
2023/04/09 09:47:52;;;;;;;61.37;28.83;;;8.20;99.90;;;;;;5168353;27;20195;-66
2023/04/09 09:50:23;;;;;;;62.83;29.43;;;8.20;99.90;;;;;;5166651;27;20222;-67
2023/04/09 09:52:54;;;;;;;59.93;28.97;;;8.30;99.90;;;;;;5173329;27;20680;-66
2023/04/09 09:55:23;;;;;;;56.23;28.43;;;8.20;99.90;;;;;;5164008;27;20191;-66
2023/04/09 09:57:54;;;;;;;67.83;31.80;;;8.30;99.90;;;;;;5173792;27;20198;-65
2023/04/09 10:00:24;;;;;;;67.93;30.77;;;8.20;99.90;;;;;;5175889;27;20285;-66
2023/04/09 10:02:56;;;;;;;65.40;31.07;;;8.10;99.90;;;;;;5177017;27;20566;-65
2023/04/09 10:05:25;;;;;;;66.97;30.07;;;8.00;99.90;;;;;;5174955;27;20191;-66
2023/04/09 10:07:54;;;;;;;66.70;30.77;;;8.00;99.90;;;;;;5176383;27;20638;-66
2023/04/09 10:10:21;;;;;;;64.20;30.50;;;8.10;99.90;;;;;;5170580;27;20199;-66
2023/04/09 10:12:48;;;;;;;71.83;33.43;;;8.10;99.90;;;;;;5159106;27;20594;-65
2023/04/09 10:15:17;;;;;;;73.07;33.23;;;8.20;99.90;;;;;;5166202;27;20217;-66
2023/04/09 10:17:45;;;;;;;69.80;31.27;;;8.20;99.90;;;;;;5156315;27;20199;-66
2023/04/09 10:20:16;;;;;;;70.27;32.63;;;8.20;99.90;;;;;;5166650;27;20267;-65
2023/04/09 10:22:46;;;;;;;76.73;33.47;;;8.10;99.90;;;;;;5172609;27;20217;-65
2023/04/09 10:25:12;;;;;;;75.80;32.73;;;8.10;99.90;;;;;;5166419;27;20653;-65
2023/04/09 10:27:41;;;;;;;65.30;30.80;;;8.10;99.90;;;;;;5169584;27;20230;-65
2023/04/09 10:30:09;;;;;;;62.43;29.27;;;8.20;99.90;;;;;;5164387;27;20192;-65
2023/04/09 10:32:38;;;;;;;63.50;30.87;;;8.30;99.90;;;;;;5174078;27;20645;-65
2023/04/09 10:35:06;;;;;;;57.27;26.23;;;8.40;99.90;;;;;;5166889;27;20191;-66
2023/04/09 10:37:35;;;;;;;50.40;24.40;;;8.50;99.90;;;;;;5168839;27;20582;-65
2023/04/09 10:40:04;;;;;;;55.07;26.27;;;8.60;99.90;;;;;;5162676;27;20286;-65
2023/04/09 10:42:35;;;;;;;55.47;25.57;;;8.50;99.90;;;;;;5165579;27;20208;-66
2023/04/09 10:45:07;;;;;;;63.83;29.27;;;8.40;99.90;;;;;;5174889;27;20203;-65
2023/04/09 10:47:35;;;;;;;66.23;30.73;;;8.50;99.90;;;;;;5172649;27;20199;-65
2023/04/09 10:50:18;;;;;;;63.50;30.47;;;8.60;99.90;;;;;;5162921;27;20199;-65
2023/04/09 10:52:44;;;;;;;69.77;30.50;;;8.70;99.90;;;;;;5165441;27;20195;-65
2023/04/09 10:55:30;;;;;;;66.40;31.10;;;8.70;99.90;;;;;;5168295;27;20666;-65
2023/04/09 10:57:57;;;;;;;62.67;28.10;;;8.60;99.90;;;;;;5167186;27;20203;-65
2023/04/09 11:00:24;;;;;;;62.73;29.43;;;8.70;99.90;;;;;;5170150;27;20210;-65
2023/04/09 11:03:19;;;;;;;63.13;31.33;;;8.70;99.90;;;;;;5171214;27;20282;-65
2023/04/09 11:05:51;;;;;;;59.70;29.80;;;9.00;99.90;;;;;;5163102;27;20580;-65
2023/04/09 11:08:18;;;;;;;62.80;32.90;;;9.20;99.90;;;;;;5174748;27;20716;-65
2023/04/09 11:10:46;;;;;;;63.57;32.60;;;9.50;99.90;;;;;;5165568;27;20645;-65
2023/04/09 11:13:14;;;;;;;60.87;31.83;;;9.50;99.90;;;;;;5166408;27;20712;-69
2023/04/09 11:15:41;;;;;;;60.90;32.23;;;9.60;99.90;;;;;;5169246;27;20195;-69
2023/04/09 11:18:09;;;;;;;62.77;32.50;;;9.80;99.90;;;;;;5171675;27;20203;-69
2023/04/09 11:20:36;;;;;;;57.37;30.80;;;9.70;99.90;;;;;;5164761;27;20203;-69
2023/04/09 11:23:05;;;;;;;55.53;32.57;;;10.10;99.90;;;;;;5174418;27;20202;-69
2023/04/09 11:25:33;;;;;;;58.80;33.43;;;10.30;99.90;;;;;;5173202;27;20195;-69
2023/04/09 11:28:02;;;;;;;60.17;32.97;;;10.10;99.90;;;;;;5159778;27;20231;-69
2023/04/09 11:30:29;;;;;;;50.80;28.90;;;10.10;99.90;;;;;;5167044;27;20660;-69
2023/04/09 11:32:56;;;;;;;47.13;28.00;;;10.20;99.90;;;;;;5162532;27;20196;-69
2023/04/09 11:35:23;;;;;;;44.97;26.77;;;10.10;99.90;;;;;;5165662;27;20202;-69
2023/04/09 11:37:51;;;;;;;46.13;28.37;;;10.10;99.90;;;;;;5164876;27;20203;-69
2023/04/09 11:40:22;;;;;;;48.03;28.90;;;10.30;99.90;;;;;;5165844;27;20569;-69
2023/04/09 11:42:51;;;;;;;48.37;27.83;;;10.30;99.90;;;;;;5162182;27;20302;-69
2023/04/09 11:45:21;;;;;;;46.80;28.27;;;10.50;99.90;;;;;;5168699;27;20664;-70
2023/04/09 11:47:48;;;;;;;44.40;26.10;;;10.40;99.90;;;;;;5163432;27;20220;-69
2023/04/09 11:50:15;;;;;;;42.90;25.73;;;10.30;99.90;;;;;;5169579;27;20592;-69
2023/04/09 11:52:43;;;;;;;42.47;25.17;;;10.10;99.90;;;;;;5170729;27;20218;-68
2023/04/09 11:55:11;;;;;;;41.30;26.13;;;10.30;99.90;;;;;;5172042;27;20681;-68
2023/04/09 11:57:41;;;;;;;37.97;23.03;;;10.30;99.90;;;;;;5166886;27;20199;-69
2023/04/09 12:00:10;;;;;;;40.87;25.03;;;10.30;99.90;;;;;;5169028;27;20249;-69
2023/04/09 12:02:39;;;;;;;43.67;25.17;;;10.10;99.90;;;;;;5165102;27;20218;-69
2023/04/09 12:05:12;;;;;;;42.53;26.17;;;9.90;99.90;;;;;;5164527;27;20199;-69
2023/04/09 12:07:39;;;;;;;40.33;24.50;;;10.00;99.90;;;;;;5157311;27;20224;-69
2023/04/09 12:10:08;;;;;;;39.03;23.03;;;10.10;99.90;;;;;;5166384;27;20199;-65
2023/04/09 12:12:45;;;;;;;42.07;23.87;;;10.20;99.90;;;;;;5163627;27;20218;-66
2023/04/09 12:15:24;;;;;;;38.43;23.07;;;10.10;99.90;;;;;;5170022;27;20219;-65
2023/04/09 12:17:54;;;;;;;41.40;24.97;;;10.20;99.90;;;;;;5166217;27;20250;-65
2023/04/09 12:20:29;;;;;;;38.43;22.60;;;10.40;99.90;;;;;;5165028;27;20270;-65
2023/04/09 12:22:56;;;;;;;39.60;24.00;;;10.40;99.90;;;;;;5165466;27;20191;-65
2023/04/09 12:25:23;;;;;;;38.40;22.97;;;10.10;99.90;;;;;;5166011;27;20641;-66
2023/04/09 12:27:51;;;;;;;36.90;21.73;;;10.40;99.90;;;;;;5170020;27;20222;-65
2023/04/09 12:30:18;;;;;;;36.33;21.70;;;10.50;99.90;;;;;;5171169;27;20207;-65
2023/04/09 12:32:46;;;;;;;39.30;21.60;;;10.80;99.90;;;;;;5170733;27;20285;-70
2023/04/09 12:35:13;;;;;;;34.00;20.67;;;11.10;99.90;;;;;;5161508;27;20205;-70
2023/04/09 12:37:40;;;;;;;32.97;19.90;;;11.20;99.90;;;;;;5163650;27;20194;-70
2023/04/09 12:40:08;;;;;;;33.87;19.67;;;11.30;99.90;;;;;;5163004;27;20200;-70